Time;durP1;ratioP1;P1;durP2;ratioP2;P2;SDS_P1;SDS_P2;PMS_P1;PMS_P2;Temp;Humidity;BMP_temperature;BMP_pressure;BME280_temperature;BME280_humidity;BME280_pressure;Samples;Min_cycle;Max_cycle;Signal;HPM_P1;HPM_P2
2023/02/13 00:00:31;;;;;;;26.17;8.30;;;6.00;94.20;;;;;;4983234;28;20046;-82
2023/02/13 00:02:58;;;;;;;24.60;7.65;;;6.00;94.90;;;;;;5009469;28;20056;-81
2023/02/13 00:05:25;;;;;;;24.60;8.00;;;6.00;94.30;;;;;;4999068;28;20129;-81
2023/02/13 00:07:51;;;;;;;26.98;7.63;;;6.00;95.20;;;;;;4987376;28;20065;-81
2023/02/13 00:10:18;;;;;;;23.15;7.53;;;6.00;93.90;;;;;;4990513;28;20054;-82
2023/02/13 00:12:45;;;;;;;23.27;8.50;;;6.00;93.80;;;;;;4997426;28;20501;-82
2023/02/13 00:15:12;;;;;;;25.08;7.50;;;6.00;93.70;;;;;;4997268;28;20050;-81
2023/02/13 00:17:39;;;;;;;23.13;8.10;;;6.00;93.60;;;;;;5004648;28;20659;-82
2023/02/13 00:20:06;;;;;;;24.85;8.23;;;6.00;93.90;;;;;;4986517;28;20219;-82
2023/02/13 00:22:37;;;;;;;21.33;7.97;;;6.00;93.60;;;;;;4998136;28;20127;-82
2023/02/13 00:25:06;;;;;;;17.83;7.32;;;6.00;93.90;;;;;;5009338;28;20045;-82
2023/02/13 00:27:33;;;;;;;23.65;7.72;;;6.00;93.70;;;;;;5003689;28;20073;-82
2023/02/13 00:30:00;;;;;;;20.60;7.60;;;6.00;93.30;;;;;;4993016;28;20073;-82
2023/02/13 00:32:26;;;;;;;21.38;8.02;;;6.00;93.40;;;;;;4989889;28;20125;-82
2023/02/13 00:34:53;;;;;;;19.27;7.72;;;6.00;94.20;;;;;;4990428;28;20054;-82
2023/02/13 00:37:20;;;;;;;24.33;7.97;;;6.00;94.10;;;;;;4998259;28;20113;-81
2023/02/13 00:39:47;;;;;;;17.77;6.95;;;6.00;94.20;;;;;;5007207;28;20490;-82
2023/02/13 00:42:14;;;;;;;23.13;7.95;;;6.00;93.90;;;;;;4994256;28;20052;-82
2023/02/13 00:44:41;;;;;;;21.42;7.35;;;6.00;93.30;;;;;;4989889;28;20056;-82
2023/02/13 00:47:08;;;;;;;20.70;7.82;;;6.00;93.80;;;;;;4992963;28;20056;-81
2023/02/13 00:49:35;;;;;;;23.38;8.27;;;5.90;94.00;;;;;;4990576;28;20046;-83
2023/02/13 00:52:02;;;;;;;26.77;8.15;;;6.00;93.00;;;;;;4985573;28;20047;-80
2023/02/13 00:54:28;;;;;;;21.42;7.40;;;6.00;93.00;;;;;;4988724;28;20129;-81
2023/02/13 00:56:55;;;;;;;30.33;9.25;;;6.00;93.00;;;;;;4997016;28;20053;-81
2023/02/13 00:59:22;;;;;;;23.77;8.10;;;6.00;92.80;;;;;;4986255;28;20045;-82
2023/02/13 01:01:49;;;;;;;25.13;8.85;;;6.00;93.60;;;;;;4999091;28;20060;-83
2023/02/13 01:04:16;;;;;;;21.98;8.18;;;6.00;93.00;;;;;;4989673;28;20052;-82
2023/02/13 01:06:43;;;;;;;27.67;8.07;;;6.00;93.30;;;;;;4989519;28;20046;-82
2023/02/13 01:09:10;;;;;;;24.10;7.28;;;5.90;93.40;;;;;;4995569;28;20050;-82
2023/02/13 01:11:37;;;;;;;23.35;8.07;;;5.90;94.10;;;;;;4985506;28;20153;-82
2023/02/13 01:14:04;;;;;;;20.58;8.23;;;5.90;93.70;;;;;;4978902;28;20056;-82
2023/02/13 01:16:31;;;;;;;29.50;9.25;;;5.90;93.90;;;;;;4990512;28;20053;-82
2023/02/13 01:18:57;;;;;;;24.52;7.57;;;5.90;94.20;;;;;;5003258;28;20062;-82
2023/02/13 01:21:25;;;;;;;21.73;7.57;;;5.90;94.10;;;;;;4989972;28;20411;-82
2023/02/13 01:23:52;;;;;;;21.27;8.70;;;5.90;94.30;;;;;;5004229;28;20063;-82
2023/02/13 01:26:21;;;;;;;29.00;9.38;;;5.90;94.30;;;;;;5002156;28;20042;-83
2023/02/13 01:28:52;;;;;;;32.05;8.80;;;5.90;94.60;;;;;;5025823;28;20517;-82
2023/02/13 01:31:19;;;;;;;29.20;9.43;;;5.90;94.90;;;;;;4997770;28;20425;-82
2023/02/13 01:33:46;;;;;;;26.10;7.88;;;5.90;94.50;;;;;;4995016;28;20046;-82
2023/02/13 01:36:13;;;;;;;22.20;9.20;;;5.80;94.40;;;;;;4992641;28;20462;-82
2023/02/13 01:38:40;;;;;;;26.00;8.90;;;5.90;94.00;;;;;;5010085;28;20049;-83
2023/02/13 01:41:08;;;;;;;25.20;8.57;;;5.90;93.90;;;;;;4992578;28;20058;-82
2023/02/13 01:43:56;;;;;;;22.77;8.95;;;5.80;94.00;;;;;;5004745;28;20053;-82
2023/02/13 01:46:37;;;;;;;23.70;8.68;;;5.80;94.40;;;;;;4988006;28;20057;-82
2023/02/13 01:49:21;;;;;;;26.55;9.25;;;5.80;94.60;;;;;;4995819;28;20103;-81
2023/02/13 01:51:51;;;;;;;29.15;10.48;;;5.80;94.60;;;;;;5001067;28;20489;-81
2023/02/13 01:54:29;;;;;;;27.05;9.73;;;5.80;94.30;;;;;;5002108;28;20089;-81
2023/02/13 01:57:11;;;;;;;23.67;9.63;;;5.80;94.00;;;;;;4990183;28;20665;-82
2023/02/13 01:59:45;;;;;;;25.13;9.20;;;5.80;94.10;;;;;;5001677;28;20053;-83
2023/02/13 02:02:12;;;;;;;28.35;9.70;;;5.80;94.30;;;;;;5002726;28;20049;-82
2023/02/13 02:04:42;;;;;;;27.45;9.40;;;5.80;94.60;;;;;;4999833;28;20049;-82
2023/02/13 02:07:20;;;;;;;23.45;9.52;;;5.80;94.50;;;;;;4994073;28;20060;-81
2023/02/13 02:09:48;;;;;;;29.60;10.23;;;5.80;94.70;;;;;;4999801;28;20049;-82
2023/02/13 02:12:41;;;;;;;26.67;8.95;;;5.80;94.90;;;;;;4993836;28;20072;-82
2023/02/13 02:15:08;;;;;;;21.92;9.02;;;5.70;94.70;;;;;;5008739;28;20058;-82
2023/02/13 02:17:35;;;;;;;22.95;9.43;;;5.70;94.80;;;;;;5023795;28;20053;-82
2023/02/13 02:20:24;;;;;;;24.08;8.95;;;5.70;94.60;;;;;;4992458;28;20068;-81
2023/02/13 02:23:19;;;;;;;24.60;8.85;;;5.70;94.40;;;;;;4987382;28;20507;-81
2023/02/13 02:26:14;;;;;;;23.88;8.77;;;5.70;94.50;;;;;;4994605;28;20054;-81
2023/02/13 02:29:15;;;;;;;24.52;9.50;;;5.60;94.60;;;;;;4993443;28;20054;-81
2023/02/13 02:31:47;;;;;;;32.67;11.80;;;5.60;94.90;;;;;;4987070;28;20085;-82
2023/02/13 02:34:23;;;;;;;27.58;10.85;;;5.60;94.50;;;;;;5000402;28;20401;-81
2023/02/13 02:37:22;;;;;;;26.38;9.20;;;5.60;94.40;;;;;;5011665;28;20053;-82
2023/02/13 02:40:19;;;;;;;24.20;10.23;;;5.60;94.30;;;;;;4955110;28;20054;-82
2023/02/13 02:43:01;;;;;;;29.00;9.77;;;5.60;94.50;;;;;;4982388;28;20042;-83
2023/02/13 02:45:37;;;;;;;28.70;10.35;;;5.60;94.90;;;;;;4979564;28;20049;-83
2023/02/13 02:51:20;;;;;;;23.55;9.63;;;5.60;94.80;;;;;;5003144;28;20156;-82
2023/02/13 02:53:46;;;;;;;23.05;9.57;;;5.50;94.60;;;;;;4986539;28;20054;-82
2023/02/13 02:56:24;;;;;;;19.60;9.40;;;5.60;94.60;;;;;;5007264;28;20140;-82
2023/02/13 03:07:20;;;;;;;17.95;7.88;;;5.60;90.30;;;;;;5010609;28;20050;-82
2023/02/13 03:22:18;;;;;;;24.13;8.52;;;5.60;91.80;;;;;;5019237;28;20050;-82
2023/02/13 03:25:34;;;;;;;19.45;8.20;;;5.60;90.50;;;;;;4994930;28;20057;-82
2023/02/13 03:31:24;;;;;;;19.13;9.48;;;5.60;90.40;;;;;;5015798;28;20061;-82
2023/02/13 03:33:55;;;;;;;22.88;8.38;;;5.60;90.50;;;;;;5008969;28;20052;-82
2023/02/13 03:40:08;;;;;;;19.33;8.50;;;5.60;90.00;;;;;;5017541;28;20053;-83
2023/02/13 03:42:58;;;;;;;19.05;8.15;;;5.60;89.30;;;;;;5003077;28;20053;-85
2023/02/13 03:45:51;;;;;;;17.23;8.15;;;5.60;90.60;;;;;;4997895;28;20050;-84
2023/02/13 03:51:27;;;;;;;21.63;9.77;;;5.50;90.50;;;;;;5010734;28;20046;-84
2023/02/13 03:53:58;;;;;;;19.83;9.30;;;5.50;90.40;;;;;;5000812;28;20140;-84
2023/02/13 03:59:22;;;;;;;18.25;7.53;;;5.50;89.50;;;;;;5022896;28;20050;-83
2023/02/13 04:02:02;;;;;;;19.60;8.13;;;5.50;88.90;;;;;;4995635;28;20062;-84
2023/02/13 04:04:47;;;;;;;17.48;7.43;;;5.50;88.90;;;;;;5005235;28;20051;-84
2023/02/13 04:07:31;;;;;;;16.80;7.63;;;5.60;87.90;;;;;;4991746;28;20060;-92
2023/02/13 04:10:04;;;;;;;17.65;7.45;;;5.50;88.60;;;;;;5020845;28;20297;-90
2023/02/13 04:13:02;;;;;;;21.52;8.23;;;5.50;89.10;;;;;;5021087;28;20109;-91
2023/02/13 04:15:32;;;;;;;26.00;8.00;;;5.60;88.40;;;;;;5036844;28;20053;-89
2023/02/13 04:18:08;;;;;;;18.23;7.78;;;5.50;89.40;;;;;;5034168;28;20050;-89
2023/02/13 04:20:37;;;;;;;17.02;8.18;;;5.50;89.40;;;;;;5034197;28;20049;-89
2023/02/13 04:23:06;;;;;;;17.92;7.85;;;5.50;89.40;;;;;;5022193;28;20049;-89
2023/02/13 04:25:36;;;;;;;21.40;8.85;;;5.50;89.60;;;;;;5005785;28;20053;-91
2023/02/13 04:28:03;;;;;;;17.38;7.95;;;5.50;89.20;;;;;;4999350;28;20486;-92
2023/02/13 04:30:30;;;;;;;22.77;7.80;;;5.50;89.60;;;;;;4999427;28;20049;-92
2023/02/13 04:32:57;;;;;;;15.88;8.23;;;5.50;88.70;;;;;;4999573;28;20051;-93
2023/02/13 04:35:24;;;;;;;17.60;8.57;;;5.50;89.60;;;;;;4999269;28;20133;-92
2023/02/13 04:37:51;;;;;;;17.77;8.43;;;5.50;89.20;;;;;;4997958;28;20630;-90
2023/02/13 04:40:18;;;;;;;19.63;8.38;;;5.50;89.30;;;;;;4998788;28;20069;-93
2023/02/13 04:42:49;;;;;;;19.08;8.10;;;5.50;89.60;;;;;;5009561;28;20041;-92
2023/02/13 04:45:16;;;;;;;21.25;8.63;;;5.50;89.50;;;;;;5009129;28;20056;-91
2023/02/13 04:47:50;;;;;;;17.42;7.43;;;5.50;90.30;;;;;;5001365;28;20050;-92
2023/02/13 04:50:17;;;;;;;20.08;7.70;;;5.50;90.00;;;;;;4989287;28;20727;-92
2023/02/13 04:52:44;;;;;;;16.17;8.40;;;5.40;90.30;;;;;;4988979;28;20486;-93
2023/02/13 04:55:11;;;;;;;20.02;8.38;;;5.50;90.50;;;;;;4992528;28;20057;-93
2023/02/13 04:57:39;;;;;;;17.00;8.55;;;5.40;90.60;;;;;;4993457;28;20565;-92
2023/02/13 05:00:07;;;;;;;16.38;8.07;;;5.40;90.00;;;;;;4994300;28;20073;-94
2023/02/13 05:02:34;;;;;;;16.60;7.88;;;5.40;90.70;;;;;;4998199;28;20395;-94
2023/02/13 05:05:01;;;;;;;17.38;8.52;;;5.40;91.40;;;;;;4996745;28;20486;-93
2023/02/13 05:07:28;;;;;;;17.83;8.63;;;5.40;90.20;;;;;;4998637;28;20462;-92
2023/02/13 05:09:55;;;;;;;18.77;8.77;;;5.40;90.40;;;;;;4998779;28;20115;-91
2023/02/13 05:12:21;;;;;;;20.40;8.75;;;5.40;90.10;;;;;;4999793;28;20052;-91
2023/02/13 05:14:48;;;;;;;24.02;9.95;;;5.40;90.90;;;;;;4997593;28;20058;-91
2023/02/13 05:17:15;;;;;;;26.40;10.43;;;5.40;91.10;;;;;;4999851;28;20056;-91
2023/02/13 05:19:42;;;;;;;25.15;10.40;;;5.40;90.70;;;;;;4995273;28;20049;-92
2023/02/13 05:24:55;;;;;;;29.20;11.38;;;5.40;91.20;;;;;;5004345;28;20074;-92
2023/02/13 05:27:22;;;;;;;32.33;12.40;;;5.40;91.50;;;;;;5002312;28;20105;-92
2023/02/13 05:29:49;;;;;;;29.02;10.68;;;5.40;91.50;;;;;;5013462;28;20061;-89
2023/02/13 05:32:16;;;;;;;32.67;11.18;;;5.40;91.50;;;;;;4995559;28;20503;-90
2023/02/13 05:34:43;;;;;;;28.38;11.13;;;5.40;91.70;;;;;;5010908;28;20050;-91
2023/02/13 05:37:10;;;;;;;33.90;11.77;;;5.40;91.90;;;;;;4996356;28;20093;-91
2023/02/13 05:39:37;;;;;;;30.30;11.88;;;5.40;92.10;;;;;;4992440;28;20505;-93
2023/02/13 05:42:04;;;;;;;29.85;12.95;;;5.40;91.50;;;;;;5000365;28;20088;-93
2023/02/13 05:44:31;;;;;;;31.80;12.13;;;5.40;92.00;;;;;;4995422;28;20061;-91
2023/02/13 05:46:58;;;;;;;29.40;13.40;;;5.40;91.90;;;;;;4994800;28;20073;-91
2023/02/13 05:49:25;;;;;;;24.92;11.68;;;5.40;91.90;;;;;;4998354;28;20045;-96
2023/02/13 05:51:52;;;;;;;34.15;13.93;;;5.40;92.10;;;;;;4998657;28;20053;-90
2023/02/13 05:54:18;;;;;;;30.52;12.88;;;5.40;91.90;;;;;;5000213;28;20081;-88
2023/02/13 05:56:45;;;;;;;27.25;11.60;;;5.40;91.80;;;;;;4996082;28;20104;-88
2023/02/13 05:59:13;;;;;;;32.30;13.13;;;5.40;91.90;;;;;;4997850;28;20690;-91
2023/02/13 06:01:40;;;;;;;30.00;12.38;;;5.40;91.80;;;;;;4995721;28;20054;-79
2023/02/13 06:04:07;;;;;;;28.02;12.25;;;5.40;92.10;;;;;;5000979;28;20045;-87
2023/02/13 06:06:34;;;;;;;33.28;12.95;;;5.40;91.20;;;;;;5009251;28;20050;-94
2023/02/13 06:09:00;;;;;;;36.38;12.93;;;5.40;91.70;;;;;;4994847;28;20698;-84
2023/02/13 06:11:27;;;;;;;33.33;13.90;;;5.40;91.30;;;;;;5006675;28;20042;-78
2023/02/13 06:13:54;;;;;;;30.15;12.32;;;5.40;91.80;;;;;;4993370;28;20406;-77
2023/02/13 06:16:21;;;;;;;32.10;12.98;;;5.40;91.80;;;;;;4995297;28;20083;-79
2023/02/13 06:18:48;;;;;;;37.97;15.02;;;5.40;92.20;;;;;;5000338;28;20131;-80
2023/02/13 06:21:15;;;;;;;32.80;13.90;;;5.40;91.20;;;;;;5015246;28;20135;-81
2023/02/13 06:23:42;;;;;;;34.67;14.65;;;5.40;91.50;;;;;;5002779;28;20060;-81
2023/02/13 06:26:09;;;;;;;39.33;14.77;;;5.40;91.30;;;;;;4990743;28;20054;-81
2023/02/13 06:28:36;;;;;;;35.67;15.02;;;5.40;91.40;;;;;;5010552;28;20493;-81
2023/02/13 06:31:03;;;;;;;34.08;14.93;;;5.40;91.00;;;;;;4999949;28;20136;-81
2023/02/13 06:33:30;;;;;;;38.08;13.88;;;5.40;90.90;;;;;;4989558;28;20054;-81
2023/02/13 06:35:57;;;;;;;33.00;15.35;;;5.40;91.20;;;;;;4996859;28;20049;-81
2023/02/13 06:38:24;;;;;;;32.40;13.82;;;5.40;91.50;;;;;;5002137;28;20044;-81
2023/02/13 06:40:51;;;;;;;34.05;14.95;;;5.40;91.20;;;;;;4996154;28;20521;-81
2023/02/13 06:43:18;;;;;;;37.83;14.88;;;5.40;91.80;;;;;;5009481;28;20447;-81
2023/02/13 06:45:45;;;;;;;32.30;14.32;;;5.40;91.80;;;;;;4995787;28;20124;-81
2023/02/13 06:48:13;;;;;;;31.15;13.38;;;5.40;91.60;;;;;;5002895;28;20054;-82
2023/02/13 06:50:40;;;;;;;32.60;14.07;;;5.40;90.90;;;;;;4995634;28;20046;-82
2023/02/13 06:53:07;;;;;;;43.42;16.02;;;5.40;91.60;;;;;;4996644;28;20839;-81
2023/02/13 06:55:35;;;;;;;32.70;15.15;;;5.40;91.40;;;;;;5006847;28;20553;-81
2023/02/13 06:58:02;;;;;;;36.72;14.93;;;5.40;90.80;;;;;;5021221;28;20086;-81
2023/02/13 07:00:28;;;;;;;33.55;14.63;;;5.40;90.60;;;;;;4998706;28;20061;-81
2023/02/13 07:03:01;;;;;;;29.30;14.27;;;5.40;90.60;;;;;;5013826;28;20053;-81
2023/02/13 07:05:28;;;;;;;32.70;14.75;;;5.40;90.70;;;;;;5008366;28;20078;-81
2023/02/13 07:07:56;;;;;;;34.88;14.68;;;5.40;90.20;;;;;;4998106;28;20603;-81
2023/02/13 07:10:23;;;;;;;30.98;14.63;;;5.40;90.10;;;;;;4995618;28;20084;-81
2023/02/13 07:12:50;;;;;;;32.70;14.70;;;5.40;90.10;;;;;;5001427;28;20796;-81
2023/02/13 07:15:35;;;;;;;39.83;15.50;;;5.40;89.70;;;;;;5010255;28;20419;-81
2023/02/13 07:18:02;;;;;;;39.72;15.85;;;5.40;89.20;;;;;;4984065;28;20050;-82
2023/02/13 07:20:29;;;;;;;36.08;14.05;;;5.40;89.70;;;;;;4987677;28;20045;-82
2023/02/13 07:23:00;;;;;;;34.58;14.60;;;5.50;89.10;;;;;;4992766;28;20666;-81
2023/02/13 07:25:28;;;;;;;31.80;14.68;;;5.50;89.20;;;;;;4997484;28;20046;-82
2023/02/13 07:27:59;;;;;;;30.58;15.10;;;5.50;89.50;;;;;;4998064;28;20033;-82
2023/02/13 07:30:26;;;;;;;30.77;14.18;;;5.50;89.30;;;;;;4998005;28;20042;-81
2023/02/13 07:32:56;;;;;;;32.03;15.18;;;5.50;89.20;;;;;;4996791;28;20676;-82
2023/02/13 07:35:23;;;;;;;32.72;13.55;;;5.50;89.70;;;;;;4995606;28;20133;-82
2023/02/13 07:37:53;;;;;;;34.60;13.43;;;5.50;89.10;;;;;;5000480;28;20072;-81
2023/02/13 07:40:20;;;;;;;30.13;14.07;;;5.50;89.30;;;;;;5001369;28;20495;-81
2023/02/13 07:42:47;;;;;;;28.27;11.55;;;5.50;88.70;;;;;;5001749;28;20049;-81
2023/02/13 07:45:14;;;;;;;31.80;12.85;;;5.50;87.40;;;;;;4999737;28;20641;-81
2023/02/13 07:47:42;;;;;;;24.00;11.95;;;5.60;87.40;;;;;;4995183;28;20570;-81
2023/02/13 07:50:09;;;;;;;28.50;12.88;;;5.60;87.70;;;;;;4997579;28;20052;-81
2023/02/13 07:52:36;;;;;;;25.92;11.93;;;5.60;86.60;;;;;;4994209;28;20042;-81
2023/02/13 07:55:05;;;;;;;26.90;12.50;;;5.60;87.20;;;;;;4989159;28;20070;-81
2023/02/13 07:57:32;;;;;;;29.10;12.27;;;5.60;87.60;;;;;;4994227;28;20057;-79
2023/02/13 07:59:59;;;;;;;26.10;11.35;;;5.60;87.10;;;;;;5009976;28;20054;-79
2023/02/13 08:02:26;;;;;;;27.08;11.07;;;5.60;86.70;;;;;;4992101;28;20046;-79
2023/02/13 08:04:53;;;;;;;24.73;10.90;;;5.60;86.50;;;;;;4987852;28;20805;-80
2023/02/13 08:07:20;;;;;;;25.45;10.73;;;5.60;87.20;;;;;;4994967;28;20108;-83
2023/02/13 08:12:34;;;;;;;23.27;10.45;;;5.70;88.20;;;;;;5003581;28;20060;-82
2023/02/13 08:15:02;;;;;;;22.75;11.18;;;5.70;88.00;;;;;;4990605;28;20411;-82
2023/02/13 08:17:29;;;;;;;25.17;11.23;;;5.70;87.10;;;;;;5010903;28;20062;-84
2023/02/13 08:19:56;;;;;;;29.52;11.98;;;5.80;87.10;;;;;;4995642;28;20057;-85
2023/02/13 08:22:23;;;;;;;30.83;12.35;;;5.80;86.70;;;;;;5002766;28;20049;-85
2023/02/13 08:24:50;;;;;;;26.20;11.40;;;5.90;86.90;;;;;;5014250;28;20079;-84
2023/02/13 08:27:17;;;;;;;21.63;10.98;;;5.90;86.80;;;;;;5008098;28;20046;-83
2023/02/13 08:29:44;;;;;;;27.73;11.32;;;5.90;86.90;;;;;;5003792;28;20475;-82
2023/02/13 08:32:11;;;;;;;27.98;12.50;;;6.00;86.70;;;;;;4991865;28;20522;-83
2023/02/13 08:34:38;;;;;;;24.95;11.55;;;6.00;86.10;;;;;;5000395;28;20351;-83
2023/02/13 08:37:05;;;;;;;27.10;11.52;;;6.00;84.90;;;;;;4998229;28;20060;-84
2023/02/13 08:39:31;;;;;;;24.80;11.10;;;6.10;85.40;;;;;;4998203;28;20608;-82
2023/02/13 08:41:58;;;;;;;25.27;11.50;;;6.00;85.30;;;;;;4986936;28;20050;-83
2023/02/13 08:44:25;;;;;;;23.98;10.57;;;6.10;86.30;;;;;;4994057;28;20064;-83
2023/02/13 08:46:52;;;;;;;29.40;12.40;;;6.10;85.60;;;;;;4998129;28;20521;-87
2023/02/13 08:49:19;;;;;;;21.85;10.73;;;6.20;86.20;;;;;;5011432;28;20133;-84
2023/02/13 08:51:46;;;;;;;24.40;11.55;;;6.20;84.40;;;;;;4996056;28;20037;-83
2023/02/13 08:54:13;;;;;;;22.73;11.48;;;6.20;85.20;;;;;;4994746;28;20061;-83
2023/02/13 08:56:40;;;;;;;30.50;12.43;;;6.20;84.20;;;;;;4998187;28;20128;-82
2023/02/13 08:59:08;;;;;;;28.38;11.80;;;6.30;84.20;;;;;;4994898;28;20047;-80
2023/02/13 09:01:34;;;;;;;35.38;13.13;;;6.30;84.70;;;;;;4995439;28;20041;-78
2023/02/13 09:04:01;;;;;;;29.40;12.65;;;6.30;85.00;;;;;;4992529;28;20096;-77
2023/02/13 09:06:28;;;;;;;25.33;12.80;;;6.40;85.00;;;;;;5005493;28;20129;-77
2023/02/13 09:08:55;;;;;;;27.73;14.00;;;6.30;84.20;;;;;;4998700;28;20052;-78
2023/02/13 09:11:22;;;;;;;27.65;12.35;;;6.40;84.40;;;;;;5005578;28;20057;-77
2023/02/13 09:13:52;;;;;;;25.02;12.23;;;6.40;85.30;;;;;;4998589;28;20081;-78
2023/02/13 09:16:19;;;;;;;28.95;13.57;;;6.40;84.90;;;;;;4990090;28;20132;-77
2023/02/13 09:18:48;;;;;;;30.30;13.27;;;6.50;84.50;;;;;;4990194;28;20483;-76
2023/02/13 09:21:16;;;;;;;33.28;12.30;;;6.50;85.20;;;;;;5001575;28;20050;-77
2023/02/13 09:23:43;;;;;;;27.45;13.35;;;6.50;84.70;;;;;;4985203;28;20184;-79
2023/02/13 09:26:12;;;;;;;30.55;13.13;;;6.50;83.30;;;;;;4989537;28;20696;-79
2023/02/13 09:28:40;;;;;;;26.55;12.35;;;6.60;84.10;;;;;;4996688;28;20610;-79
2023/02/13 09:31:15;;;;;;;24.75;12.05;;;6.60;83.10;;;;;;4991965;28;20062;-80
2023/02/13 09:33:43;;;;;;;;;;;6.60;83.90;;;;;;4992576;28;20656;-80
2023/02/13 09:36:13;;;;;;;27.20;11.82;;;6.60;84.80;;;;;;4989735;28;19921;-79
2023/02/13 09:38:44;;;;;;;28.23;11.95;;;6.70;84.60;;;;;;4989386;28;20056;-79
2023/02/13 09:41:17;;;;;;;30.65;12.32;;;6.70;84.10;;;;;;4987944;28;20418;-77
2023/02/13 09:43:49;;;;;;;23.50;11.77;;;6.70;82.10;;;;;;4984154;28;20056;-75
2023/02/13 09:46:27;;;;;;;33.83;12.82;;;6.70;83.30;;;;;;4984360;28;20053;-75
2023/02/13 09:48:57;;;;;;;29.48;12.63;;;6.70;83.20;;;;;;5004695;28;20058;-76
2023/02/13 09:51:26;;;;;;;30.67;12.75;;;6.80;83.60;;;;;;4989030;28;20050;-76
2023/02/13 09:54:07;;;;;;;30.75;13.23;;;6.90;83.60;;;;;;4985354;28;20052;-78
2023/02/13 09:56:51;;;;;;;30.08;12.70;;;6.90;83.10;;;;;;5001750;28;20420;-76
2023/02/13 09:59:34;;;;;;;29.55;12.38;;;6.90;82.30;;;;;;4990623;28;20495;-76
2023/02/13 10:02:13;;;;;;;29.48;12.98;;;6.90;82.40;;;;;;4986155;28;20115;-76
2023/02/13 10:05:11;;;;;;;25.98;12.65;;;7.00;81.80;;;;;;4986143;28;20436;-76
2023/02/13 10:07:47;;;;;;;25.60;12.75;;;6.90;81.10;;;;;;4988533;28;20053;-76
2023/02/13 10:10:31;;;;;;;100.85;19.17;;;7.00;82.10;;;;;;5003424;28;20510;-75
2023/02/13 10:13:44;;;;;;;36.30;14.50;;;7.00;81.10;;;;;;4990621;28;20054;-78
2023/02/13 10:16:26;;;;;;;33.10;13.20;;;7.00;81.00;;;;;;4988854;28;20459;-78
2023/02/13 10:19:02;;;;;;;30.58;13.20;;;7.00;81.20;;;;;;4991583;28;20058;-81
2023/02/13 10:21:35;;;;;;;32.28;13.02;;;7.00;82.60;;;;;;4994445;28;20052;-80
2023/02/13 10:24:10;;;;;;;28.33;12.75;;;7.00;82.00;;;;;;5010557;28;20060;-79
2023/02/13 10:26:41;;;;;;;29.38;12.73;;;7.10;81.70;;;;;;4990429;28;20058;-81
2023/02/13 10:32:12;;;;;;;30.90;12.75;;;7.10;81.30;;;;;;5012376;28;20542;-80
2023/02/13 10:34:44;;;;;;;23.65;11.93;;;7.10;80.70;;;;;;5006646;28;20096;-82
2023/02/13 10:37:18;;;;;;;33.10;13.50;;;7.10;80.60;;;;;;4992575;28;20053;-79
2023/02/13 10:39:48;;;;;;;32.47;12.75;;;7.20;80.50;;;;;;4993306;28;20564;-79
2023/02/13 10:42:21;;;;;;;30.42;13.02;;;7.20;80.70;;;;;;4993961;28;20050;-80
2023/02/13 10:45:01;;;;;;;33.60;12.20;;;7.20;81.20;;;;;;4990318;28;20068;-80
2023/02/13 10:48:14;;;;;;;29.90;12.57;;;7.30;80.20;;;;;;4995513;28;20066;-79
2023/02/13 10:50:47;;;;;;;28.73;12.00;;;7.20;80.00;;;;;;5008103;28;20046;-79
2023/02/13 10:53:29;;;;;;;31.40;13.07;;;7.20;80.40;;;;;;5013341;28;20776;-81
2023/02/13 10:56:18;;;;;;;28.05;12.50;;;7.30;80.20;;;;;;5008801;28;20045;-82
2023/02/13 10:59:04;;;;;;;27.35;12.63;;;7.40;80.70;;;;;;5011272;28;20457;-82
2023/02/13 11:01:40;;;;;;;26.73;12.45;;;7.30;78.80;;;;;;4998188;28;20050;-82
2023/02/13 11:04:09;;;;;;;27.08;12.75;;;7.40;79.20;;;;;;5014433;28;20065;-82
2023/02/13 11:06:39;;;;;;;29.83;13.40;;;7.30;79.40;;;;;;4999077;28;20052;-83
2023/02/13 11:09:06;;;;;;;34.58;12.63;;;7.30;78.50;;;;;;4996724;28;20058;-82
2023/02/13 11:11:37;;;;;;;31.48;12.88;;;7.40;78.50;;;;;;5001202;28;20081;-80
2023/02/13 11:14:22;;;;;;;27.05;13.00;;;7.40;79.00;;;;;;5020809;28;20133;-81
2023/02/13 11:16:49;;;;;;;27.00;12.52;;;7.40;78.40;;;;;;4995516;28;20050;-81
2023/02/13 11:19:28;;;;;;;25.58;12.27;;;7.40;79.00;;;;;;5011408;28;20103;-81
2023/02/13 11:22:05;;;;;;;25.52;11.45;;;7.30;78.50;;;;;;5000260;28;20128;-81
2023/02/13 11:24:33;;;;;;;27.95;12.20;;;7.40;78.60;;;;;;5006366;28;20425;-81
2023/02/13 11:27:12;;;;;;;30.10;12.73;;;7.40;79.10;;;;;;4995434;28;20145;-80
2023/02/13 11:29:57;;;;;;;36.65;12.43;;;7.60;79.40;;;;;;4988161;28;20736;-80
2023/02/13 11:32:27;;;;;;;23.10;11.82;;;7.50;78.70;;;;;;5002168;28;20049;-79
2023/02/13 11:34:54;;;;;;;26.50;12.07;;;7.50;77.00;;;;;;4992545;28;20049;-79
2023/02/13 11:37:28;;;;;;;30.88;12.00;;;7.50;77.50;;;;;;5015331;28;20406;-79
2023/02/13 11:39:57;;;;;;;30.45;12.05;;;7.40;77.30;;;;;;4991397;28;20046;-80
2023/02/13 11:42:34;;;;;;;32.55;13.07;;;7.40;78.00;;;;;;4986866;28;20046;-80
2023/02/13 11:45:18;;;;;;;26.15;12.85;;;7.40;77.90;;;;;;4991458;28;20077;-80
2023/02/13 11:47:45;;;;;;;22.83;11.35;;;7.30;77.40;;;;;;5001739;28;20046;-80
2023/02/13 11:50:30;;;;;;;28.38;12.10;;;7.30;77.60;;;;;;5005322;28;20053;-80
2023/02/13 11:52:59;;;;;;;23.00;11.50;;;7.40;78.00;;;;;;4983796;28;20085;-81
2023/02/13 11:55:36;;;;;;;21.55;10.05;;;7.30;76.50;;;;;;5004266;28;20068;-80
2023/02/13 11:58:24;;;;;;;29.17;10.65;;;7.20;75.60;;;;;;4989295;28;20140;-80
2023/02/13 12:01:22;;;;;;;17.00;9.18;;;7.20;76.30;;;;;;5004960;28;20042;-80
2023/02/13 12:04:15;;;;;;;17.67;8.23;;;7.20;76.20;;;;;;4987863;28;20490;-80
2023/02/13 12:07:10;;;;;;;16.88;8.48;;;7.20;76.00;;;;;;5006458;28;20042;-80
2023/02/13 12:09:39;;;;;;;19.92;8.15;;;7.20;75.70;;;;;;4994530;28;20050;-80
2023/02/13 12:12:14;;;;;;;15.20;7.05;;;7.20;75.60;;;;;;5011931;28;20046;-80
2023/02/13 12:14:43;;;;;;;;;;;7.20;76.00;;;;;;5002186;28;20083;-80
2023/02/13 12:17:20;;;;;;;21.48;8.25;;;7.20;74.50;;;;;;4995214;28;20310;-81
2023/02/13 12:19:58;;;;;;;13.00;6.65;;;7.20;75.50;;;;;;5013267;28;20756;-81
2023/02/13 12:22:53;;;;;;;15.50;6.93;;;7.20;74.40;;;;;;5001472;28;20045;-79
2023/02/13 12:25:38;;;;;;;15.00;6.83;;;7.20;75.10;;;;;;4995196;28;20061;-80
2023/02/13 12:28:14;;;;;;;17.10;7.10;;;7.20;75.10;;;;;;4992556;28;20136;-80
2023/02/13 12:31:08;;;;;;;12.77;6.13;;;7.20;75.00;;;;;;5014073;28;20057;-80
2023/02/13 12:33:46;;;;;;;13.23;6.75;;;7.20;74.90;;;;;;5002823;28;20061;-80
2023/02/13 12:36:25;;;;;;;16.48;8.02;;;7.00;74.90;;;;;;5014859;28;20564;-79
2023/02/13 12:38:52;;;;;;;21.70;6.30;;;7.10;76.00;;;;;;4987870;28;20057;-78
2023/02/13 12:41:34;;;;;;;13.23;7.03;;;7.10;74.60;;;;;;4993466;28;20050;-78
2023/02/13 12:44:24;;;;;;;16.88;6.63;;;7.10;74.70;;;;;;4992236;28;20050;-78
2023/02/13 12:47:00;;;;;;;16.25;5.72;;;7.00;74.60;;;;;;4981214;28;20053;-78
2023/02/13 12:49:58;;;;;;;11.23;6.00;;;7.00;75.30;;;;;;5008389;28;20060;-79
2023/02/13 12:52:32;;;;;;;14.02;6.00;;;7.00;74.30;;;;;;4991582;28;20049;-78
2023/02/13 12:55:22;;;;;;;9.55;5.40;;;7.00;75.30;;;;;;5010736;28;20046;-78
2023/02/13 12:58:05;;;;;;;16.20;6.30;;;7.00;74.10;;;;;;4943839;28;20111;-78
2023/02/13 13:00:47;;;;;;;11.98;5.97;;;7.00;75.30;;;;;;4985953;28;20662;-78
2023/02/13 13:03:33;;;;;;;13.88;6.45;;;7.00;75.30;;;;;;5012865;28;20574;-78
2023/02/13 13:06:00;;;;;;;9.15;4.85;;;7.00;75.10;;;;;;4992800;28;20089;-78
2023/02/13 13:08:56;;;;;;;12.45;6.00;;;7.00;74.90;;;;;;4989304;28;20065;-78
2023/02/13 13:11:23;;;;;;;14.25;5.88;;;7.00;75.20;;;;;;4987862;28;20499;-78
2023/02/13 13:14:14;;;;;;;8.52;4.95;;;7.00;74.60;;;;;;5005441;28;20046;-78
2023/02/13 13:17:02;;;;;;;10.48;5.20;;;6.90;75.00;;;;;;4985958;28;20049;-78
2023/02/13 13:20:07;;;;;;;12.50;5.43;;;6.90;74.50;;;;;;4995388;28;20129;-78
2023/02/13 13:23:01;;;;;;;19.42;5.65;;;6.90;74.70;;;;;;4995915;28;20687;-79
2023/02/13 13:25:35;;;;;;;11.15;6.03;;;6.90;75.70;;;;;;5003849;28;20060;-79
2023/02/13 13:28:10;;;;;;;14.25;7.35;;;6.90;75.50;;;;;;4988988;28;20127;-78
2023/02/13 13:30:39;;;;;;;13.52;6.82;;;6.90;75.80;;;;;;5006871;28;20048;-78
2023/02/13 13:33:20;;;;;;;20.65;6.97;;;6.90;76.10;;;;;;4994298;28;20124;-79
2023/02/13 13:35:57;;;;;;;15.43;6.10;;;6.90;75.80;;;;;;5000953;28;20491;-78
2023/02/13 13:38:58;;;;;;;11.52;5.22;;;6.90;75.20;;;;;;5011287;28;20306;-79
2023/02/13 13:41:30;;;;;;;15.35;5.68;;;6.90;75.10;;;;;;5007053;28;20057;-79
2023/02/13 13:44:02;;;;;;;11.32;5.55;;;6.80;75.30;;;;;;5008025;28;20053;-79
2023/02/13 13:46:34;;;;;;;12.27;6.38;;;6.80;75.70;;;;;;4985918;28;20607;-79
2023/02/13 13:49:16;;;;;;;10.68;5.28;;;6.90;75.80;;;;;;5015604;28;20466;-79
2023/02/13 13:51:43;;;;;;;12.50;6.20;;;6.90;75.60;;;;;;4996827;28;20088;-80
2023/02/13 13:54:10;;;;;;;11.93;5.38;;;6.90;74.80;;;;;;4993764;28;20108;-79
2023/02/13 13:56:52;;;;;;;15.25;5.53;;;6.90;75.20;;;;;;5018186;28;20056;-79